createdAt,value
2018-04-15T00:01:59.290Z,98.43
2018-04-15T00:04:25.478Z,92.27
2018-04-15T00:06:51.700Z,91.80
2018-04-15T00:09:17.892Z,118.33
2018-04-15T00:11:44.851Z,102.77
2018-04-15T00:14:11.785Z,99.77
2018-04-15T00:16:38.739Z,92.73
2018-04-15T00:19:05.674Z,103.80
2018-04-15T00:21:32.723Z,100.07
2018-04-15T00:23:58.906Z,86.70
2018-04-15T00:26:25.140Z,108.70
2018-04-15T00:28:51.335Z,101.60
2018-04-15T00:31:17.527Z,100.07
2018-04-15T00:33:43.750Z,115.50
2018-04-15T00:36:10.053Z,94.80
2018-04-15T00:38:36.258Z,99.00
2018-04-15T00:41:02.866Z,122.03
2018-04-15T00:43:29.106Z,117.83
2018-04-15T00:45:56.022Z,100.97
2018-04-15T00:48:22.271Z,97.73
2018-04-15T00:50:49.267Z,111.37
2018-04-15T00:53:15.487Z,102.57
2018-04-15T00:55:41.674Z,97.23
2018-04-15T00:58:08.636Z,91.30
2018-04-15T01:00:35.567Z,104.43
2018-04-15T01:03:02.895Z,98.00
2018-04-15T01:05:29.431Z,109.23
2018-04-15T01:07:56.277Z,98.47
2018-04-15T01:10:23.610Z,105.33
2018-04-15T01:12:49.894Z,82.87
2018-04-15T01:15:17.478Z,106.03
2018-04-15T01:17:43.747Z,108.43
2018-04-15T01:20:09.933Z,86.80
2018-04-15T01:22:36.172Z,99.37
2018-04-15T01:25:02.431Z,104.17
2018-04-15T01:27:28.646Z,104.57
2018-04-15T01:29:54.844Z,108.07
2018-04-15T01:32:21.068Z,92.60
2018-04-15T01:34:47.999Z,95.63
2018-04-15T01:37:14.206Z,93.47
2018-04-15T01:39:41.165Z,101.37
2018-04-15T01:42:07.384Z,91.00
2018-04-15T01:44:33.572Z,97.60
2018-04-15T01:46:59.795Z,96.80
2018-04-15T01:49:25.983Z,101.73
2018-04-15T01:51:52.226Z,94.77
2018-04-15T01:54:19.234Z,96.90
2018-04-15T01:56:45.455Z,85.27
2018-04-15T01:59:11.715Z,100.67
2018-04-15T02:01:37.934Z,98.43
2018-04-15T02:04:04.131Z,102.47
2018-04-15T02:06:30.391Z,102.73
2018-04-15T02:08:56.605Z,89.63
2018-04-15T02:11:22.801Z,86.03
2018-04-15T02:13:49.026Z,99.03
2018-04-15T02:16:15.300Z,103.27
2018-04-15T02:18:41.514Z,102.20
2018-04-15T02:21:07.742Z,94.97
2018-04-15T02:23:34.267Z,99.60
2018-04-15T02:26:00.454Z,83.73
2018-04-15T02:28:27.491Z,91.50
2018-04-15T02:30:53.679Z,89.47
2018-04-15T02:33:19.891Z,90.50
2018-04-15T02:35:46.084Z,98.60
2018-04-15T02:38:13.043Z,86.20
2018-04-15T02:40:39.258Z,75.07
2018-04-15T02:43:06.220Z,95.80
2018-04-15T02:45:33.555Z,116.83
2018-04-15T02:47:59.752Z,114.30
2018-04-15T02:50:25.970Z,101.10
2018-04-15T02:52:52.172Z,106.70
2018-04-15T02:55:18.383Z,102.77
2018-04-15T02:57:45.307Z,100.07
2018-04-15T03:00:11.523Z,108.27
2018-04-15T03:02:37.736Z,112.37
2018-04-15T03:05:03.957Z,93.63
2018-04-15T03:07:30.169Z,97.87
2018-04-15T03:09:56.397Z,102.00
2018-04-15T03:12:22.595Z,99.40
2018-04-15T03:14:49.566Z,106.33
2018-04-15T03:17:15.758Z,106.50
2018-04-15T03:19:42.690Z,105.87
2018-04-15T03:22:08.931Z,97.17
2018-04-15T03:24:35.123Z,118.03
2018-04-15T03:27:01.348Z,113.53
2018-04-15T03:29:27.547Z,110.53
2018-04-15T03:31:53.775Z,89.10
2018-04-15T03:34:20.717Z,100.23
2018-04-15T03:36:47.675Z,103.40
2018-04-15T03:39:13.867Z,101.17
2018-04-15T03:41:40.079Z,96.43
2018-04-15T03:44:06.274Z,106.70
2018-04-15T03:46:32.503Z,98.73
2018-04-15T03:48:58.771Z,95.93
2018-04-15T03:51:24.987Z,94.47
2018-04-15T03:53:51.175Z,90.93
2018-04-15T03:56:17.390Z,88.30
2018-04-15T03:58:44.314Z,106.40
2018-04-15T04:01:10.531Z,95.67
2018-04-15T04:03:36.733Z,107.47
2018-04-15T04:06:02.983Z,103.20
2018-04-15T04:08:29.170Z,100.47
2018-04-15T04:10:55.387Z,110.03
2018-04-15T04:13:22.334Z,94.30
2018-04-15T04:15:48.575Z,86.27
2018-04-15T04:18:27.272Z,95.00
2018-04-15T04:21:06.770Z,99.93
2018-04-15T04:23:45.509Z,102.67
2018-04-15T04:26:11.782Z,86.47
2018-04-15T04:28:37.975Z,90.23
2018-04-15T04:31:04.222Z,97.17
2018-04-15T04:33:31.414Z,96.13
2018-04-15T04:35:57.631Z,87.97
2018-04-15T04:38:23.823Z,102.57
2018-04-15T04:40:50.101Z,106.30
2018-04-15T04:43:16.310Z,93.30
2018-04-15T04:45:42.770Z,98.80
2018-04-15T04:48:08.966Z,86.67
2018-04-15T04:50:35.928Z,85.53
2018-04-15T04:53:02.123Z,89.30
2018-04-15T04:55:29.075Z,95.17
2018-04-15T04:57:56.002Z,75.30
2018-04-15T05:00:22.223Z,86.27
2018-04-15T05:02:48.419Z,86.17
2018-04-15T05:05:14.648Z,82.33
2018-04-15T05:07:40.851Z,91.57
2018-04-15T05:10:07.091Z,89.30
2018-04-15T05:12:33.288Z,90.20
2018-04-15T05:15:00.327Z,94.50
2018-04-15T05:17:27.306Z,72.27
2018-04-15T05:19:53.518Z,74.20
2018-04-15T05:22:20.483Z,72.90
2018-04-15T05:24:46.671Z,70.73
2018-04-15T05:27:12.886Z,72.03
2018-04-15T05:29:39.112Z,66.10
2018-04-15T05:32:05.330Z,69.77
2018-04-15T05:34:31.514Z,69.00
2018-04-15T05:36:58.519Z,62.30
2018-04-15T05:39:24.711Z,70.27
2018-04-15T05:41:50.931Z,64.03
2018-04-15T05:44:17.115Z,61.00
2018-04-15T05:46:43.331Z,60.13
2018-04-15T05:49:09.518Z,63.43
2018-04-15T05:51:35.735Z,53.57
2018-04-15T05:54:02.669Z,57.10
2018-04-15T05:56:29.631Z,51.20
2018-04-15T05:58:55.826Z,50.23
2018-04-15T06:01:22.827Z,58.90
2018-04-15T06:03:49.266Z,50.47
2018-04-15T06:06:15.523Z,46.13
2018-04-15T06:08:41.721Z,55.67
2018-04-15T06:11:07.939Z,54.37
2018-04-15T06:13:34.122Z,48.03
2018-04-15T06:16:01.818Z,48.80
2018-04-15T06:18:28.050Z,47.80
2018-04-15T06:20:54.271Z,52.03
2018-04-15T06:23:21.230Z,47.50
2018-04-15T06:25:47.435Z,48.40
2018-04-15T06:28:14.391Z,51.00
2018-04-15T06:30:41.601Z,42.50
2018-04-15T06:33:07.806Z,58.47
2018-04-15T06:35:33.998Z,47.03
2018-04-15T06:38:00.959Z,44.03
2018-04-15T06:40:27.147Z,46.80
2018-04-15T06:42:53.359Z,43.93
2018-04-15T06:45:19.604Z,43.60
2018-04-15T06:47:45.803Z,45.10
2018-04-15T06:50:11.998Z,39.23
2018-04-15T06:52:38.216Z,38.30
2018-04-15T06:55:05.149Z,31.40
2018-04-15T06:57:31.358Z,37.57
2018-04-15T06:59:57.546Z,27.00
2018-04-15T07:02:23.758Z,26.97
2018-04-15T07:04:49.950Z,24.77
2018-04-15T07:07:16.166Z,24.83
2018-04-15T07:09:42.384Z,24.93
2018-04-15T07:12:08.615Z,25.17
2018-04-15T07:14:34.911Z,27.80
2018-04-15T07:17:01.126Z,24.57
2018-04-15T07:19:28.070Z,19.00
2018-04-15T07:21:55.084Z,21.80
2018-04-15T07:24:21.274Z,25.63
2018-04-15T07:26:50.489Z,23.40
2018-04-15T07:29:17.523Z,23.30
2018-04-15T07:31:45.938Z,22.67
2018-04-15T07:34:12.219Z,22.33
2018-04-15T07:36:38.490Z,21.13
2018-04-15T07:39:04.720Z,22.40
2018-04-15T07:41:31.129Z,19.60
2018-04-15T07:43:57.327Z,19.37
2018-04-15T07:46:23.614Z,17.20
2018-04-15T07:48:49.798Z,13.80
2018-04-15T07:51:16.009Z,20.10
2018-04-15T07:53:42.939Z,14.90
2018-04-15T07:56:09.154Z,15.20
2018-04-15T07:58:35.342Z,16.87
2018-04-15T08:01:02.326Z,14.93
2018-04-15T08:03:29.294Z,13.23
2018-04-15T08:05:56.354Z,15.17
2018-04-15T08:08:22.572Z,15.50
2018-04-15T08:10:49.515Z,13.13
2018-04-15T08:13:16.475Z,11.80
2018-04-15T08:15:43.419Z,15.23
2018-04-15T08:18:10.382Z,17.57
2018-04-15T08:20:36.595Z,12.67
2018-04-15T08:23:03.575Z,18.67
2018-04-15T08:25:29.762Z,13.80
2018-04-15T08:27:56.723Z,14.60
2018-04-15T08:30:22.942Z,12.53
2018-04-15T08:32:49.912Z,17.53
2018-04-15T08:35:16.106Z,12.67
2018-04-15T08:37:42.328Z,10.00
2018-04-15T08:40:08.520Z,12.40
2018-04-15T08:42:34.738Z,12.00
2018-04-15T08:45:00.931Z,19.87
2018-04-15T08:47:27.903Z,12.17
2018-04-15T08:49:54.103Z,12.50
2018-04-15T08:52:21.283Z,16.60
2018-04-15T08:54:47.675Z,11.37
2018-04-15T08:57:14.078Z,13.07
2018-04-15T08:59:40.407Z,11.30
2018-04-15T09:02:06.622Z,11.37
2018-04-15T09:04:32.814Z,16.13
2018-04-15T09:06:59.791Z,15.13
2018-04-15T09:09:25.981Z,16.00
2018-04-15T09:11:52.943Z,14.63
2018-04-15T09:14:19.871Z,16.90
2018-04-15T09:16:46.842Z,13.70
2018-04-15T09:19:13.026Z,12.60
2018-04-15T09:21:39.276Z,13.63
2018-04-15T09:24:06.206Z,15.63
2018-04-15T09:26:32.483Z,13.40
2018-04-15T09:28:58.688Z,12.93
2018-04-15T09:31:25.642Z,13.67
2018-04-15T09:33:52.579Z,12.13
2018-04-15T09:36:19.538Z,16.80
2018-04-15T09:38:45.726Z,12.43
2018-04-15T09:41:12.331Z,15.97
2018-04-15T09:43:38.523Z,19.93
2018-04-15T09:46:05.479Z,18.17
2018-04-15T09:48:31.675Z,19.67
2018-04-15T09:50:57.886Z,10.63
2018-04-15T09:53:24.079Z,16.92
2018-04-15T09:55:50.299Z,13.88
2018-04-15T09:58:23.435Z,15.53
2018-04-15T10:00:49.671Z,16.97
2018-04-15T10:03:15.875Z,16.00
2018-04-15T10:05:42.069Z,17.20
2018-04-15T10:08:08.295Z,17.15
2018-04-15T10:10:35.228Z,18.90
2018-04-15T10:13:02.183Z,19.15
2018-04-15T10:15:29.114Z,13.18
2018-04-15T10:17:56.067Z,17.70
2018-04-15T10:20:23.727Z,19.17
2018-04-15T10:22:50.690Z,19.20
2018-04-15T10:25:16.903Z,15.93
2018-04-15T10:27:44.121Z,17.60
2018-04-15T10:30:10.345Z,19.33
2018-04-15T10:32:36.571Z,21.90
2018-04-15T10:35:02.779Z,22.37
2018-04-15T10:37:29.006Z,20.60
2018-04-15T10:39:55.204Z,19.53
2018-04-15T10:42:22.160Z,23.70
2018-04-15T10:44:48.363Z,24.60
2018-04-15T10:47:14.578Z,28.60
2018-04-15T10:49:41.012Z,32.37
2018-04-15T10:52:08.018Z,34.13
2018-04-15T10:54:34.213Z,30.20
2018-04-15T10:57:00.475Z,28.97
2018-04-15T10:59:27.548Z,33.50
2018-04-15T11:01:53.767Z,32.40
2018-04-15T11:04:19.964Z,31.40
2018-04-15T11:06:46.324Z,32.93
2018-04-15T11:09:12.541Z,34.50
2018-04-15T11:11:39.098Z,32.93
2018-04-15T11:14:05.337Z,36.73
2018-04-15T11:16:31.535Z,33.60
2018-04-15T11:18:57.959Z,32.43
2018-04-15T11:21:24.227Z,29.43
2018-04-15T11:23:50.903Z,32.23
2018-04-15T11:26:17.871Z,30.70
2018-04-15T11:28:44.059Z,30.60
2018-04-15T11:31:10.278Z,28.50
2018-04-15T11:33:36.475Z,31.90
2018-04-15T11:36:02.684Z,29.27
2018-04-15T11:38:28.888Z,29.23
2018-04-15T11:40:55.867Z,26.00
2018-04-15T11:43:22.054Z,35.80
2018-04-15T11:45:48.267Z,30.83
2018-04-15T11:48:14.484Z,38.83
2018-04-15T11:50:40.700Z,32.60
2018-04-15T11:53:06.895Z,31.77
2018-04-15T11:55:33.851Z,36.50
2018-04-15T11:58:00.414Z,30.83
2018-04-15T12:00:26.668Z,28.37
2018-04-15T12:02:52.863Z,28.80
2018-04-15T12:05:19.406Z,32.90
2018-04-15T12:07:45.624Z,29.70
2018-04-15T12:10:11.858Z,28.83
2018-04-15T12:12:38.060Z,25.70
2018-04-15T12:15:04.994Z,26.20
2018-04-15T12:17:31.950Z,29.00
2018-04-15T12:19:58.883Z,28.20
2018-04-15T12:22:25.880Z,24.93
2018-04-15T12:24:52.075Z,30.07
2018-04-15T12:27:25.958Z,24.40
2018-04-15T12:29:52.174Z,21.53
2018-04-15T12:32:18.382Z,22.87
2018-04-15T12:34:44.589Z,26.53
2018-04-15T12:37:10.815Z,25.43
2018-04-15T12:39:37.012Z,24.90
2018-04-15T12:42:03.980Z,26.50
2018-04-15T12:44:30.170Z,24.10
2018-04-15T12:46:56.387Z,21.63
2018-04-15T12:49:22.583Z,31.83
2018-04-15T12:51:48.798Z,25.65
2018-04-15T12:54:14.995Z,23.40
2018-04-15T12:56:41.211Z,24.83
2018-04-15T12:59:07.402Z,26.10
2018-04-15T13:01:33.615Z,25.60
2018-04-15T13:04:06.867Z,26.87
2018-04-15T13:06:33.088Z,30.60
2018-04-15T13:08:59.647Z,27.10
2018-04-15T13:11:26.627Z,31.80
2018-04-15T13:13:52.815Z,32.93
2018-04-15T13:16:19.037Z,24.10
2018-04-15T13:18:46.002Z,24.80
2018-04-15T13:21:15.020Z,28.27
2018-04-15T13:23:41.959Z,20.23
2018-04-15T13:26:08.204Z,22.83
2018-04-15T13:28:34.404Z,26.00
2018-04-15T13:31:01.362Z,30.17
2018-04-15T13:33:27.564Z,24.67
2018-04-15T13:35:53.771Z,32.10
2018-04-15T13:38:20.279Z,28.30
2018-04-15T13:40:46.499Z,29.60
2018-04-15T13:43:12.694Z,21.77
2018-04-15T13:45:39.635Z,25.30
2018-04-15T13:48:06.620Z,30.70
2018-04-15T13:50:32.806Z,30.50
2018-04-15T13:52:59.022Z,26.57
2018-04-15T13:55:25.215Z,25.40
2018-04-15T13:57:51.432Z,28.00
2018-04-15T14:00:17.618Z,28.27
2018-04-15T14:02:43.835Z,26.00
2018-04-15T14:05:10.034Z,23.53
2018-04-15T14:07:36.260Z,27.20
2018-04-15T14:10:02.475Z,27.60
2018-04-15T14:12:28.692Z,28.07
2018-04-15T14:14:54.886Z,23.07
2018-04-15T14:17:21.530Z,26.70
2018-04-15T14:19:47.714Z,23.87
2018-04-15T14:22:13.990Z,27.00
2018-04-15T14:24:40.179Z,24.27
2018-04-15T14:27:06.436Z,25.80
2018-04-15T14:29:32.659Z,23.83
2018-04-15T14:31:58.860Z,24.83
2018-04-15T14:34:25.080Z,22.97
2018-04-15T14:36:51.282Z,24.87
2018-04-15T14:39:18.254Z,26.70
2018-04-15T14:41:44.471Z,30.00
2018-04-15T14:44:10.687Z,22.50
2018-04-15T14:46:37.620Z,22.30
2018-04-15T14:49:04.591Z,22.57
2018-04-15T14:51:30.800Z,21.80
2018-04-15T14:53:57.763Z,28.20
2018-04-15T14:56:23.964Z,27.47
2018-04-15T14:58:50.183Z,23.00
2018-04-15T15:01:16.387Z,26.90
2018-04-15T15:03:42.603Z,26.30
2018-04-15T15:06:08.819Z,25.90
2018-04-15T15:08:35.015Z,29.30
2018-04-15T15:11:01.970Z,29.60
2018-04-15T15:13:28.903Z,30.77
2018-04-15T15:15:55.864Z,28.37
2018-04-15T15:18:22.819Z,29.73
2018-04-15T15:20:49.039Z,33.33
2018-04-15T15:23:15.263Z,31.47
2018-04-15T15:25:42.190Z,27.77
2018-04-15T15:28:08.483Z,28.90
2018-04-15T15:30:34.634Z,34.93
2018-04-15T15:33:00.876Z,33.77
2018-04-15T15:35:27.062Z,34.23
2018-04-15T15:37:53.283Z,31.73
2018-04-15T15:40:19.479Z,34.60
2018-04-15T15:42:46.444Z,36.17
2018-04-15T15:45:12.648Z,31.77
2018-04-15T15:47:39.950Z,34.30
2018-04-15T15:50:06.151Z,27.50
2018-04-15T15:52:32.366Z,32.30
2018-04-15T15:54:59.299Z,34.70
2018-04-15T15:57:25.514Z,28.33
2018-04-15T15:59:51.711Z,30.00
2018-04-15T16:02:17.934Z,27.30
2018-04-15T16:04:44.132Z,30.27
2018-04-15T16:07:11.096Z,29.00
2018-04-15T16:09:37.284Z,33.87
2018-04-15T16:12:03.478Z,29.40
2018-04-15T16:14:29.699Z,29.47
2018-04-15T16:16:55.895Z,36.93
2018-04-15T16:19:22.143Z,31.03
2018-04-15T16:21:48.435Z,30.10
2018-04-15T16:24:14.663Z,26.83
2018-04-15T16:26:41.608Z,32.90
2018-04-15T16:29:09.315Z,28.90
2018-04-15T16:31:35.507Z,30.03
2018-04-15T16:34:02.467Z,32.57
2018-04-15T16:36:29.399Z,49.53
2018-04-15T16:38:56.354Z,34.83
2018-04-15T16:41:23.291Z,33.33
2018-04-15T16:43:50.243Z,33.17
2018-04-15T16:46:17.171Z,31.77
2018-04-15T16:48:43.387Z,38.50
2018-04-15T16:51:09.579Z,33.87
2018-04-15T16:53:35.799Z,34.03
2018-04-15T16:56:02.025Z,35.03
2018-04-15T16:58:28.242Z,32.47
2018-04-15T17:00:55.210Z,28.90
2018-04-15T17:03:21.410Z,29.90
2018-04-15T17:05:48.338Z,34.00
2018-04-15T17:08:14.555Z,29.37
2018-04-15T17:10:40.750Z,30.93
2018-04-15T17:13:06.966Z,29.53
2018-04-15T17:15:33.164Z,28.33
2018-04-15T17:18:00.558Z,32.47
2018-04-15T17:20:26.784Z,33.70
2018-04-15T17:22:52.975Z,30.63
2018-04-15T17:25:22.772Z,31.87
2018-04-15T17:27:48.958Z,30.80
2018-04-15T17:30:15.170Z,32.73
2018-04-15T17:32:41.359Z,30.33
2018-04-15T17:35:07.586Z,26.10
2018-04-15T17:37:33.783Z,31.57
2018-04-15T17:40:00.003Z,31.67
2018-04-15T17:42:26.198Z,29.73
2018-04-15T17:44:53.155Z,31.33
2018-04-15T17:47:19.352Z,33.17
2018-04-15T17:49:46.323Z,30.07
2018-04-15T17:52:12.520Z,32.33
2018-04-15T17:54:38.739Z,32.47
2018-04-15T17:57:04.933Z,29.43
2018-04-15T17:59:32.703Z,33.57
2018-04-15T18:01:58.909Z,35.00
2018-04-15T18:04:25.131Z,28.57
2018-04-15T18:06:52.535Z,31.70
2018-04-15T18:09:18.754Z,27.17
2018-04-15T18:11:44.943Z,33.00
2018-04-15T18:14:12.123Z,37.13
2018-04-15T18:16:38.560Z,29.53
2018-04-15T18:19:05.199Z,35.33
2018-04-15T18:21:31.436Z,39.80
2018-04-15T18:23:57.664Z,34.03
2018-04-15T18:26:23.882Z,33.90
2018-04-15T18:28:50.166Z,35.70
2018-04-15T18:31:17.114Z,35.60
2018-04-15T18:33:44.076Z,33.27
2018-04-15T18:36:10.272Z,32.57
2018-04-15T18:38:36.490Z,36.50
2018-04-15T18:41:02.693Z,37.90
2018-04-15T18:43:28.914Z,34.30
2018-04-15T18:45:55.107Z,28.83
2018-04-15T18:48:22.063Z,31.17
2018-04-15T18:50:49.013Z,29.20
2018-04-15T18:53:15.995Z,36.23
2018-04-15T18:55:42.426Z,33.20
2018-04-15T18:58:08.676Z,29.87
2018-04-15T19:00:34.904Z,29.40
2018-04-15T19:03:01.153Z,33.37
2018-04-15T19:05:28.110Z,36.43
2018-04-15T19:07:54.332Z,35.43
2018-04-15T19:10:21.260Z,35.60
2018-04-15T19:12:47.475Z,35.00
2018-04-15T19:15:13.667Z,31.67
2018-04-15T19:17:39.898Z,34.17
2018-04-15T19:20:06.139Z,34.53
2018-04-15T19:22:32.357Z,35.77
2018-04-15T19:24:58.547Z,39.33
2018-04-15T19:27:25.563Z,36.70
2018-04-15T19:29:51.754Z,40.10
2018-04-15T19:32:18.690Z,40.47
2018-04-15T19:34:45.735Z,36.17
2018-04-15T19:37:12.703Z,39.20
2018-04-15T19:39:38.887Z,31.30
2018-04-15T19:42:05.138Z,33.60
2018-04-15T19:44:31.327Z,39.27
2018-04-15T19:46:57.523Z,37.37
2018-04-15T19:49:23.783Z,35.53
2018-04-15T19:51:49.974Z,34.13
2018-04-15T19:54:16.235Z,37.50
2018-04-15T19:56:42.427Z,40.43
2018-04-15T19:59:08.647Z,36.47
2018-04-15T20:01:35.582Z,32.63
2018-04-15T20:04:01.795Z,36.53
2018-04-15T20:06:28.046Z,34.73
2018-04-15T20:08:55.002Z,32.70
2018-04-15T20:11:22.041Z,33.27
2018-04-15T20:13:49.014Z,34.77
2018-04-15T20:16:15.234Z,33.40
2018-04-15T20:18:41.471Z,31.20
2018-04-15T20:21:07.711Z,32.50
2018-04-15T20:23:33.956Z,29.43
2018-04-15T20:26:00.148Z,32.43
2018-04-15T20:28:26.383Z,32.53
2018-04-15T20:30:52.574Z,29.50
2018-04-15T20:33:19.543Z,31.60
2018-04-15T20:35:46.491Z,32.27
2018-04-15T20:38:13.475Z,26.93
2018-04-15T20:40:39.683Z,30.23
2018-04-15T20:43:05.865Z,38.90
2018-04-15T20:45:32.860Z,29.43
2018-04-15T20:47:59.050Z,29.97
2018-04-15T20:50:26.011Z,30.80
2018-04-15T20:52:52.944Z,30.23
2018-04-15T20:55:19.925Z,30.37
2018-04-15T20:57:46.129Z,34.27
2018-04-15T21:00:13.092Z,33.43
2018-04-15T21:02:39.290Z,35.23
2018-04-15T21:05:05.518Z,31.77
2018-04-15T21:07:32.523Z,34.50
2018-04-15T21:09:58.758Z,33.60
2018-04-15T21:12:24.952Z,41.10
2018-04-15T21:14:51.173Z,38.63
2018-04-15T21:17:18.107Z,34.63
2018-04-15T21:19:45.565Z,34.40
2018-04-15T21:22:11.785Z,38.60
2018-04-15T21:24:39.487Z,38.53
2018-04-15T21:27:05.683Z,38.17
2018-04-15T21:29:31.910Z,41.03
2018-04-15T21:31:58.095Z,36.70
2018-04-15T21:34:24.286Z,41.60
2018-04-15T21:36:51.289Z,38.07
2018-04-15T21:39:17.495Z,34.80
2018-04-15T21:41:43.735Z,40.33
2018-04-15T21:44:09.945Z,36.70
2018-04-15T21:46:36.155Z,42.90
2018-04-15T21:49:02.367Z,42.70
2018-04-15T21:51:29.355Z,45.80
2018-04-15T21:53:55.548Z,45.40
2018-04-15T21:56:21.791Z,44.07
2018-04-15T21:58:47.984Z,45.30
2018-04-15T22:01:14.222Z,47.33
2018-04-15T22:03:40.429Z,39.73
2018-04-15T22:06:06.642Z,47.00
2018-04-15T22:08:32.859Z,49.33
2018-04-15T22:10:59.043Z,47.37
2018-04-15T22:13:25.992Z,48.23
2018-04-15T22:15:52.919Z,41.90
2018-04-15T22:18:19.147Z,58.40
2018-04-15T22:20:46.847Z,54.53
2018-04-15T22:23:13.098Z,50.83
2018-04-15T22:25:39.288Z,42.60
2018-04-15T22:28:06.251Z,44.07
2018-04-15T22:30:32.452Z,46.57
2018-04-15T22:32:58.671Z,41.97
2018-04-15T22:35:24.922Z,51.33
2018-04-15T22:37:51.883Z,49.03
2018-04-15T22:40:18.071Z,45.00
2018-04-15T22:42:44.291Z,43.60
2018-04-15T22:45:10.482Z,46.13
2018-04-15T22:47:37.083Z,47.50
2018-04-15T22:50:17.077Z,46.80
2018-04-15T22:52:43.294Z,47.63
2018-04-15T22:55:09.487Z,49.40
2018-04-15T22:57:36.447Z,42.10
2018-04-15T23:00:03.415Z,46.73
2018-04-15T23:02:29.666Z,51.30
2018-04-15T23:04:55.863Z,42.87
2018-04-15T23:07:22.882Z,57.53
2018-04-15T23:09:50.595Z,50.50
2018-04-15T23:12:16.811Z,50.00
2018-04-15T23:14:43.024Z,51.90
2018-04-15T23:17:09.968Z,52.90
2018-04-15T23:19:36.954Z,47.17
2018-04-15T23:22:03.147Z,52.63
2018-04-15T23:24:30.103Z,48.20
2018-04-15T23:26:56.298Z,41.77
2018-04-15T23:29:22.511Z,55.27
2018-04-15T23:31:48.702Z,56.27
2018-04-15T23:34:14.915Z,53.53
2018-04-15T23:36:41.102Z,50.10
2018-04-15T23:39:07.320Z,47.77
2018-04-15T23:41:33.507Z,44.83
2018-04-15T23:43:59.776Z,52.87
2018-04-15T23:46:25.971Z,46.50
2018-04-15T23:48:52.171Z,49.50
2018-04-15T23:51:19.127Z,50.53
2018-04-15T23:53:46.058Z,52.87
2018-04-15T23:56:12.307Z,51.50
2018-04-15T23:58:38.505Z,54.10
